< < Back
Terminal Aerodrome Forecast


Current Version              Previous Versions:   1  2  3  4  5  6  7  8  9  

Terminal Aerodrome Forecast

251
FTUS42 KCHS 180500
TAFSAV
TAF
KSAV 180527Z 1806/1906 05009KT P6SM SCT060 OVC200
     FM181100 04012G18KT P6SM SCT015 BKN025
      TEMPO 1815/1818 6SM -RA SCT009 BKN015
     FM181800 06015G23KT 5SM RA BR SCT009 OVC018
     FM182100 08013KT 3SM RA BR BKN007 OVC012=



Latest METAR

025
SAUS80 KWBC 182300 CCA
MTRSAV
METAR KSAV 182253Z 32007KT 4SM +RA BR BKN006 BKN013 OVC018 14/13 A3006
RMK AO2 SLP177 P0038 T01390128


USA.gov is the U.S. government's official web portal to all federal, state and local government web resources and services.